Time;durP1;ratioP1;P1;durP2;ratioP2;P2;SDS_P1;SDS_P2;PMS_P1;PMS_P2;Temp;Humidity;BMP_temperature;BMP_pressure;BME280_temperature;BME280_humidity;BME280_pressure;Samples;Min_cycle;Max_cycle;Signal;HPM_P1;HPM_P2
2021/03/20 00:00:32;;;;;;;19.17;12.20;;;5.50;62.50;;;;;;4973949;28;20041;-81
2021/03/20 00:02:58;;;;;;;20.85;12.63;;;5.40;62.70;;;;;;4975637;28;20026;-80
2021/03/20 00:05:24;;;;;;;19.15;13.20;;;5.40;63.00;;;;;;4957715;28;20066;-80
2021/03/20 00:07:54;;;;;;;19.73;12.73;;;5.30;63.40;;;;;;4974041;28;20034;-80
2021/03/20 00:10:22;;;;;;;17.58;12.20;;;5.30;63.70;;;;;;4957272;28;20089;-80
2021/03/20 00:12:49;;;;;;;18.70;12.93;;;5.20;64.00;;;;;;4974008;28;20046;-80
2021/03/20 00:15:17;;;;;;;19.42;12.90;;;5.20;64.00;;;;;;4973678;28;20057;-80
2021/03/20 00:17:43;;;;;;;19.15;12.88;;;5.20;64.10;;;;;;4975938;28;20034;-79
2021/03/20 00:20:24;;;;;;;19.92;12.55;;;5.20;64.10;;;;;;4979176;28;20047;-79
2021/03/20 00:22:50;;;;;;;20.58;13.35;;;5.20;64.30;;;;;;4977358;28;20031;-79
2021/03/20 00:25:16;;;;;;;17.88;12.77;;;5.20;64.50;;;;;;4977435;28;20039;-79
2021/03/20 00:27:42;;;;;;;22.33;13.80;;;5.10;64.70;;;;;;4977505;28;20038;-79
2021/03/20 00:30:09;;;;;;;19.65;12.30;;;5.10;65.10;;;;;;4977664;28;20045;-79
2021/03/20 00:32:36;;;;;;;20.60;13.82;;;5.10;65.10;;;;;;4977917;28;20047;-79
2021/03/20 00:35:03;;;;;;;21.40;13.45;;;5.00;65.10;;;;;;4979312;28;20053;-79
2021/03/20 00:37:30;;;;;;;24.25;13.40;;;5.00;65.30;;;;;;4981846;28;20037;-79
2021/03/20 00:39:57;;;;;;;21.83;14.25;;;5.00;65.40;;;;;;4965540;28;20035;-80
2021/03/20 00:42:23;;;;;;;25.17;15.23;;;5.00;65.50;;;;;;4979493;28;20578;-80
2021/03/20 00:44:49;;;;;;;22.48;14.00;;;5.00;65.30;;;;;;4960951;28;20034;-79
2021/03/20 00:47:15;;;;;;;20.15;13.93;;;5.00;65.40;;;;;;4961405;28;20035;-80
2021/03/20 00:49:41;;;;;;;22.98;13.68;;;5.00;65.20;;;;;;4977428;28;20069;-79
2021/03/20 00:52:07;;;;;;;20.50;14.13;;;5.00;65.20;;;;;;4978130;28;20129;-79
2021/03/20 00:54:33;;;;;;;19.58;13.50;;;4.90;65.30;;;;;;4960857;28;20062;-80
2021/03/20 00:56:59;;;;;;;23.15;13.35;;;5.00;65.30;;;;;;4960935;28;20039;-79
2021/03/20 00:59:25;;;;;;;20.05;12.52;;;5.00;65.20;;;;;;4978336;28;20070;-79
2021/03/20 01:01:51;;;;;;;20.40;13.43;;;4.90;65.40;;;;;;4977414;28;20130;-80
2021/03/20 01:04:17;;;;;;;22.45;12.90;;;4.90;65.60;;;;;;4961026;28;20133;-80
2021/03/20 01:06:43;;;;;;;22.52;12.90;;;4.90;65.70;;;;;;4976778;28;20038;-79
2021/03/20 01:09:10;;;;;;;18.80;12.73;;;4.90;65.70;;;;;;4978911;28;20503;-80
2021/03/20 01:11:35;;;;;;;20.98;13.05;;;4.80;65.50;;;;;;4960918;28;20125;-80
2021/03/20 01:14:01;;;;;;;18.90;13.07;;;4.80;65.60;;;;;;4960900;28;20559;-80
2021/03/20 01:16:28;;;;;;;22.10;13.32;;;4.80;65.60;;;;;;4976849;28;20093;-80
2021/03/20 01:18:54;;;;;;;17.50;12.00;;;4.80;65.70;;;;;;4977365;28;20057;-80
2021/03/20 01:21:22;;;;;;;20.48;13.02;;;4.80;65.80;;;;;;4961122;28;20030;-80
2021/03/20 01:23:48;;;;;;;19.05;13.30;;;4.70;66.00;;;;;;4976831;28;20046;-80
2021/03/20 01:26:14;;;;;;;18.90;12.23;;;4.70;66.20;;;;;;4977881;28;20046;-80
2021/03/20 01:28:41;;;;;;;20.33;13.25;;;4.70;66.40;;;;;;4960805;28;20035;-80
2021/03/20 01:31:08;;;;;;;19.67;12.48;;;4.70;66.60;;;;;;4976432;28;20491;-80
2021/03/20 01:33:34;;;;;;;18.38;12.52;;;4.60;66.70;;;;;;4977810;28;20046;-81
2021/03/20 01:36:00;;;;;;;19.65;12.82;;;4.60;66.80;;;;;;4960236;28;20045;-81
2021/03/20 01:38:27;;;;;;;18.20;12.25;;;4.60;66.80;;;;;;4975983;28;20046;-82
2021/03/20 01:40:59;;;;;;;20.23;13.02;;;4.60;67.00;;;;;;4976094;28;20034;-81
2021/03/20 01:43:28;;;;;;;19.92;12.73;;;4.60;67.10;;;;;;4975764;28;20102;-81
2021/03/20 01:46:14;;;;;;;18.15;11.73;;;4.60;67.50;;;;;;4977698;28;20065;-80
2021/03/20 01:48:39;;;;;;;18.27;11.45;;;4.60;67.80;;;;;;4984774;28;20050;-80
2021/03/20 01:51:12;;;;;;;16.38;11.63;;;4.60;67.80;;;;;;4983707;28;20072;-80
2021/03/20 01:53:45;;;;;;;16.75;11.57;;;4.60;67.90;;;;;;4983995;28;20530;-81
2021/03/20 01:56:16;;;;;;;19.65;12.13;;;4.50;68.10;;;;;;4978009;28;20042;-80
2021/03/20 01:58:43;;;;;;;18.10;12.25;;;4.50;68.30;;;;;;4975951;28;20035;-81
2021/03/20 02:01:19;;;;;;;17.10;10.93;;;4.50;68.70;;;;;;4959447;28;20038;-81
2021/03/20 02:03:45;;;;;;;16.40;11.77;;;4.50;68.90;;;;;;4975876;28;20039;-81
2021/03/20 02:06:11;;;;;;;15.30;11.05;;;4.40;69.00;;;;;;4976838;28;20049;-81
2021/03/20 02:08:42;;;;;;;17.65;11.63;;;4.40;69.20;;;;;;4976393;28;20039;-81
2021/03/20 02:11:37;;;;;;;16.73;11.25;;;4.40;69.40;;;;;;4975338;28;20039;-81
2021/03/20 02:14:30;;;;;;;17.27;11.35;;;4.40;69.80;;;;;;4958307;28;20074;-81
2021/03/20 02:17:19;;;;;;;18.63;11.93;;;4.30;70.20;;;;;;4959415;28;20043;-80
2021/03/20 02:20:03;;;;;;;15.88;11.43;;;4.30;70.40;;;;;;4960227;28;20506;-80
2021/03/20 02:23:00;;;;;;;15.75;11.25;;;4.30;70.80;;;;;;4975155;28;20037;-80
2021/03/20 02:26:11;;;;;;;17.00;11.20;;;4.20;71.10;;;;;;4958887;28;20038;-80
2021/03/20 02:29:13;;;;;;;17.25;10.82;;;4.20;71.60;;;;;;4959400;28;20042;-80
2021/03/20 02:32:10;;;;;;;15.45;10.48;;;4.10;71.80;;;;;;4960945;28;20050;-80
2021/03/20 02:34:44;;;;;;;15.45;10.00;;;4.10;71.80;;;;;;4977394;28;20038;-80
2021/03/20 02:37:42;;;;;;;13.43;9.98;;;4.10;72.10;;;;;;4959129;28;20065;-80
2021/03/20 02:40:35;;;;;;;14.13;9.93;;;4.10;72.10;;;;;;4958938;28;20034;-80
2021/03/20 02:43:25;;;;;;;13.98;10.50;;;4.10;72.00;;;;;;4974983;28;20047;-80
2021/03/20 02:46:02;;;;;;;13.15;9.55;;;4.10;72.20;;;;;;4974794;28;20051;-80
2021/03/20 02:48:34;;;;;;;16.50;10.27;;;4.10;72.20;;;;;;4975384;28;20467;-80
2021/03/20 02:51:14;;;;;;;13.93;9.77;;;4.10;72.20;;;;;;4959137;28;20145;-80
2021/03/20 02:54:14;;;;;;;15.18;9.50;;;4.10;72.50;;;;;;4975006;28;20051;-80
2021/03/20 02:56:59;;;;;;;13.70;9.23;;;4.00;72.50;;;;;;4952264;28;20507;-80
2021/03/20 02:59:30;;;;;;;15.30;9.98;;;4.00;72.50;;;;;;4998327;28;20046;-81
2021/03/20 03:02:00;;;;;;;14.10;8.98;;;4.00;72.70;;;;;;4981680;28;20039;-80
2021/03/20 03:04:32;;;;;;;13.43;8.82;;;4.00;72.80;;;;;;4974564;28;20065;-80
2021/03/20 03:07:14;;;;;;;12.07;8.40;;;3.90;72.60;;;;;;4975687;28;20125;-80
2021/03/20 03:09:56;;;;;;;11.85;8.80;;;3.90;72.60;;;;;;4974597;28;20133;-80
2021/03/20 03:12:47;;;;;;;10.93;8.05;;;4.00;72.70;;;;;;4974857;28;20147;-79
2021/03/20 03:15:28;;;;;;;13.43;8.55;;;3.90;72.60;;;;;;4957700;28;20053;-80
2021/03/20 03:18:09;;;;;;;13.77;8.68;;;3.90;72.80;;;;;;4975752;28;20475;-78
2021/03/20 03:20:41;;;;;;;12.60;8.32;;;3.90;73.50;;;;;;4999374;28;20042;-79
2021/03/20 03:23:29;;;;;;;12.32;8.30;;;3.80;73.10;;;;;;4983367;28;20018;-80
2021/03/20 03:26:01;;;;;;;11.45;7.93;;;3.80;73.10;;;;;;4982875;28;20050;-79
2021/03/20 03:28:29;;;;;;;12.23;7.82;;;3.80;73.30;;;;;;4983386;28;20097;-80
2021/03/20 03:31:11;;;;;;;11.10;7.97;;;3.70;73.50;;;;;;4974747;28;20042;-80
2021/03/20 03:33:46;;;;;;;10.40;7.55;;;3.70;73.70;;;;;;4974196;28;20078;-80
2021/03/20 03:36:15;;;;;;;10.00;7.03;;;3.70;74.00;;;;;;4974638;28;20086;-80
2021/03/20 03:39:01;;;;;;;10.38;7.85;;;3.70;74.00;;;;;;4974100;28;20041;-81
2021/03/20 03:41:33;;;;;;;11.15;7.57;;;3.60;74.30;;;;;;4954710;28;20055;-81
2021/03/20 03:44:00;;;;;;;13.25;8.23;;;3.60;74.20;;;;;;4955576;29;20043;-80
2021/03/20 03:46:29;;;;;;;13.68;7.18;;;3.60;74.20;;;;;;4954852;29;20035;-80
2021/03/20 03:48:57;;;;;;;9.63;7.35;;;3.60;74.50;;;;;;4954653;29;20046;-80
2021/03/20 03:51:24;;;;;;;10.40;8.23;;;3.60;74.40;;;;;;4958315;28;20042;-80
2021/03/20 03:53:51;;;;;;;12.60;8.00;;;3.50;74.70;;;;;;4958765;29;20130;-80
2021/03/20 03:56:33;;;;;;;10.30;7.38;;;3.50;74.60;;;;;;4958481;29;20071;-80
2021/03/20 03:59:22;;;;;;;11.20;7.43;;;3.50;74.70;;;;;;4958170;29;20039;-80
2021/03/20 04:02:34;;;;;;;10.00;7.55;;;3.50;74.70;;;;;;4958534;29;20043;-80
2021/03/20 04:05:28;;;;;;;13.23;7.68;;;3.50;74.90;;;;;;4958162;29;20143;-79
2021/03/20 04:08:26;;;;;;;10.60;6.57;;;3.50;74.80;;;;;;4962446;29;20039;-80
2021/03/20 04:11:17;;;;;;;9.52;7.25;;;3.40;74.90;;;;;;4965259;29;20086;-81
2021/03/20 04:13:56;;;;;;;8.95;6.97;;;3.40;74.90;;;;;;4964424;29;20453;-80
2021/03/20 04:16:38;;;;;;;9.93;7.75;;;3.40;74.80;;;;;;4958195;29;20400;-81
2021/03/20 04:19:21;;;;;;;12.15;7.63;;;3.40;74.80;;;;;;4958088;29;20044;-80
2021/03/20 04:21:55;;;;;;;10.48;7.22;;;3.40;74.80;;;;;;4942882;29;20377;-85
2021/03/20 04:24:55;;;;;;;11.68;7.38;;;3.40;74.60;;;;;;4960241;29;20512;-83
2021/03/20 04:27:28;;;;;;;9.95;7.63;;;3.40;74.50;;;;;;4958094;29;20035;-82
2021/03/20 04:30:14;;;;;;;9.38;7.07;;;3.40;74.70;;;;;;4957626;29;20042;-81
2021/03/20 04:32:59;;;;;;;12.65;7.45;;;3.30;74.70;;;;;;4958622;29;20559;-82
2021/03/20 04:35:31;;;;;;;9.73;7.10;;;3.30;74.80;;;;;;4958219;29;20067;-81
2021/03/20 04:38:00;;;;;;;13.52;7.80;;;3.30;74.80;;;;;;4957956;29;20106;-82
2021/03/20 04:40:28;;;;;;;10.02;7.68;;;3.30;74.90;;;;;;4957698;29;20436;-82
2021/03/20 04:42:56;;;;;;;11.52;7.60;;;3.30;75.10;;;;;;4956044;28;20058;-82
2021/03/20 04:45:32;;;;;;;9.68;7.30;;;3.30;75.20;;;;;;4961195;28;20074;-81
2021/03/20 04:48:22;;;;;;;11.18;7.63;;;3.20;75.30;;;;;;4977454;28;20041;-82
2021/03/20 04:50:54;;;;;;;10.77;7.68;;;3.20;75.30;;;;;;4962734;28;20050;-79
2021/03/20 04:53:20;;;;;;;10.30;7.32;;;3.20;75.60;;;;;;4977278;28;20035;-81
2021/03/20 04:55:46;;;;;;;12.50;7.68;;;3.10;75.80;;;;;;4979819;28;20073;-82
2021/03/20 04:58:22;;;;;;;13.30;7.90;;;3.10;75.80;;;;;;4981123;28;20027;-80
2021/03/20 05:00:57;;;;;;;10.88;8.52;;;3.10;76.00;;;;;;4976795;28;20130;-81
2021/03/20 05:03:31;;;;;;;13.68;8.07;;;3.10;76.20;;;;;;4976464;28;20508;-82
2021/03/20 05:05:58;;;;;;;;;;;3.00;76.50;;;;;;4977621;28;20476;-83
2021/03/20 05:08:41;;;;;;;11.35;7.28;;;3.00;76.80;;;;;;4976803;28;19910;-81
2021/03/20 05:11:13;;;;;;;10.73;7.88;;;2.90;77.00;;;;;;4976048;28;20093;-81
2021/03/20 05:13:58;;;;;;;11.95;8.07;;;3.00;77.10;;;;;;4960582;28;20038;-81
2021/03/20 05:16:23;;;;;;;;;;;2.90;77.30;;;;;;4961592;28;20038;-81
2021/03/20 05:18:51;;;;;;;12.27;8.60;;;2.90;77.50;;;;;;4980532;28;20337;-82
2021/03/20 05:21:24;;;;;;;16.70;8.73;;;2.90;77.60;;;;;;4985823;28;20097;-81
2021/03/20 05:23:51;;;;;;;11.68;8.30;;;2.80;77.70;;;;;;4985693;28;20476;-81
2021/03/20 05:26:17;;;;;;;12.38;8.13;;;2.80;77.70;;;;;;4979794;28;20043;-82
2021/03/20 05:28:42;;;;;;;10.75;7.78;;;2.80;77.70;;;;;;4977022;28;20043;-82
2021/03/20 05:31:08;;;;;;;13.85;8.55;;;2.80;77.80;;;;;;4976769;28;20123;-82
2021/03/20 05:33:36;;;;;;;13.38;8.95;;;2.80;78.10;;;;;;4977337;28;20125;-82
2021/03/20 05:36:03;;;;;;;12.30;8.63;;;2.70;78.30;;;;;;4976254;28;20046;-82
2021/03/20 05:38:29;;;;;;;12.00;9.07;;;2.70;78.40;;;;;;4977087;28;20073;-82
2021/03/20 05:41:07;;;;;;;11.80;8.60;;;2.70;78.60;;;;;;4959757;28;20039;-82
2021/03/20 05:44:04;;;;;;;12.82;9.15;;;2.70;78.60;;;;;;4975915;28;20134;-82
2021/03/20 05:46:35;;;;;;;11.15;8.35;;;2.70;78.60;;;;;;4978015;28;20077;-82
2021/03/20 05:49:13;;;;;;;10.95;8.10;;;2.70;78.70;;;;;;4960048;28;20038;-82
2021/03/20 05:52:18;;;;;;;11.55;8.90;;;2.70;78.70;;;;;;4960234;28;20038;-82
2021/03/20 05:55:01;;;;;;;14.75;8.70;;;2.70;78.70;;;;;;4936708;28;20038;-82
2021/03/20 05:57:36;;;;;;;12.65;8.48;;;2.70;78.80;;;;;;4975352;28;20038;-82
2021/03/20 06:00:39;;;;;;;12.50;9.00;;;2.70;78.90;;;;;;4960109;28;20066;-82
2021/03/20 06:03:08;;;;;;;15.77;8.82;;;2.70;79.10;;;;;;4959668;28;20046;-84
2021/03/20 06:05:59;;;;;;;14.45;10.60;;;2.60;78.90;;;;;;4959863;28;20093;-82
2021/03/20 06:08:44;;;;;;;16.17;9.40;;;2.60;79.10;;;;;;4976011;28;20475;-82
2021/03/20 06:11:28;;;;;;;13.38;9.45;;;2.60;79.10;;;;;;4975671;28;20065;-82
2021/03/20 06:14:48;;;;;;;13.07;9.98;;;2.60;79.10;;;;;;4959470;28;20045;-81
2021/03/20 06:17:38;;;;;;;12.73;9.60;;;2.60;79.20;;;;;;4882499;29;20084;-81
2021/03/20 06:20:16;;;;;;;15.40;10.43;;;2.60;79.20;;;;;;4972347;28;20500;-81
2021/03/20 06:23:16;;;;;;;17.02;10.57;;;2.60;79.40;;;;;;4959227;28;20145;-82
2021/03/20 06:25:57;;;;;;;17.45;10.10;;;2.60;79.40;;;;;;4959090;28;20041;-82
2021/03/20 06:28:52;;;;;;;14.65;10.95;;;2.60;79.20;;;;;;4975923;28;20042;-82
2021/03/20 06:31:25;;;;;;;17.85;10.85;;;2.70;79.10;;;;;;4978766;28;20030;-82
2021/03/20 06:33:55;;;;;;;16.83;10.35;;;2.70;79.00;;;;;;4967036;28;20046;-81
2021/03/20 06:36:29;;;;;;;16.77;11.50;;;2.70;79.00;;;;;;4982407;28;20096;-81
2021/03/20 06:39:30;;;;;;;15.38;11.07;;;2.70;78.90;;;;;;4977533;28;20077;-81
2021/03/20 06:42:22;;;;;;;17.30;11.75;;;2.70;78.80;;;;;;4948259;28;20058;-81
2021/03/20 06:44:55;;;;;;;22.63;11.48;;;2.70;78.60;;;;;;4975178;28;20042;-82
2021/03/20 06:47:24;;;;;;;19.55;11.63;;;2.80;78.90;;;;;;4974784;28;20127;-82
2021/03/20 06:50:09;;;;;;;15.35;11.75;;;2.80;78.50;;;;;;4975854;28;20161;-82
2021/03/20 06:52:37;;;;;;;18.20;12.77;;;2.80;78.30;;;;;;4959446;28;20034;-82
2021/03/20 06:55:08;;;;;;;18.55;13.48;;;2.80;78.50;;;;;;4974950;28;20050;-82
2021/03/20 06:57:34;;;;;;;17.27;11.90;;;2.90;78.50;;;;;;4959064;28;20035;-82
2021/03/20 07:00:19;;;;;;;15.15;12.02;;;2.90;78.20;;;;;;4976192;28;20479;-81
2021/03/20 07:03:13;;;;;;;15.52;12.00;;;2.90;78.00;;;;;;4961286;28;20036;-82
2021/03/20 07:06:07;;;;;;;17.38;12.50;;;3.00;77.90;;;;;;4940009;29;20476;-82
2021/03/20 07:08:53;;;;;;;18.70;12.90;;;3.00;77.60;;;;;;4955746;29;20046;-82
2021/03/20 07:11:49;;;;;;;17.20;12.85;;;3.20;77.30;;;;;;4939451;29;20039;-82
2021/03/20 07:15:06;;;;;;;18.98;13.48;;;3.30;77.20;;;;;;4955318;29;20039;-82
2021/03/20 07:17:38;;;;;;;19.33;13.73;;;3.30;76.80;;;;;;4933606;29;20047;-77
2021/03/20 07:20:17;;;;;;;18.83;13.70;;;3.40;76.80;;;;;;4956118;29;20047;-77
2021/03/20 07:23:04;;;;;;;20.42;13.13;;;3.40;76.70;;;;;;4955379;29;20031;-77
2021/03/20 07:26:04;;;;;;;18.35;14.05;;;3.50;76.50;;;;;;4954772;28;20043;-76
2021/03/20 07:28:30;;;;;;;18.08;14.02;;;3.60;76.70;;;;;;4955059;29;20039;-75
2021/03/20 07:30:59;;;;;;;21.58;14.73;;;3.60;75.90;;;;;;4954946;29;20047;-74
2021/03/20 07:33:31;;;;;;;20.45;14.77;;;3.70;75.60;;;;;;4939479;29;20610;-74
2021/03/20 07:36:20;;;;;;;22.05;15.50;;;3.80;75.50;;;;;;4955069;29;20046;-74
2021/03/20 07:39:04;;;;;;;19.88;14.80;;;3.80;75.10;;;;;;4956363;29;20104;-74
2021/03/20 07:41:50;;;;;;;22.30;15.88;;;3.90;74.90;;;;;;4956779;29;20080;-75
2021/03/20 07:44:16;;;;;;;20.17;13.95;;;4.00;75.20;;;;;;4955365;29;20039;-75
2021/03/20 07:46:43;;;;;;;22.08;15.95;;;4.10;74.50;;;;;;4954990;29;20504;-75
2021/03/20 07:49:45;;;;;;;22.00;15.52;;;4.20;74.00;;;;;;4955917;29;20039;-76
2021/03/20 07:52:27;;;;;;;25.95;15.98;;;4.30;74.10;;;;;;4938690;29;20562;-75
2021/03/20 07:55:16;;;;;;;19.33;14.98;;;4.40;74.00;;;;;;4956177;29;20046;-79
2021/03/20 07:57:58;;;;;;;22.75;15.65;;;4.50;73.40;;;;;;4955078;29;20071;-77
2021/03/20 08:00:29;;;;;;;21.30;15.05;;;4.60;73.30;;;;;;4970170;28;20043;-75
2021/03/20 08:03:16;;;;;;;23.55;16.60;;;4.80;72.60;;;;;;4954925;29;20041;-77
2021/03/20 08:05:43;;;;;;;23.08;15.90;;;4.90;72.40;;;;;;4956595;29;20047;-77
2021/03/20 08:08:22;;;;;;;22.73;16.13;;;5.00;72.00;;;;;;4954723;29;20120;-77
2021/03/20 08:10:55;;;;;;;19.73;15.68;;;5.10;71.60;;;;;;4938611;29;20492;-77
2021/03/20 08:13:37;;;;;;;21.45;16.50;;;5.20;71.60;;;;;;4954654;29;20035;-77
2021/03/20 08:16:18;;;;;;;24.58;16.65;;;5.40;70.50;;;;;;4954342;29;20043;-77
2021/03/20 08:18:48;;;;;;;22.75;17.15;;;5.40;70.50;;;;;;4954230;29;20471;-76
2021/03/20 08:21:20;;;;;;;26.50;17.23;;;5.40;70.70;;;;;;4955008;29;20035;-76
2021/03/20 08:24:26;;;;;;;22.63;16.17;;;5.50;70.20;;;;;;4955827;29;20031;-76
2021/03/20 08:27:20;;;;;;;25.33;16.95;;;5.70;70.10;;;;;;4937704;29;20107;-76
2021/03/20 08:29:49;;;;;;;19.42;15.60;;;5.80;68.80;;;;;;4938442;29;20066;-83
2021/03/20 08:32:45;;;;;;;21.45;16.40;;;5.90;68.60;;;;;;4938277;29;20192;-76
2021/03/20 08:35:23;;;;;;;25.65;16.92;;;6.00;67.70;;;;;;4954013;29;20039;-77
2021/03/20 08:38:27;;;;;;;21.83;15.60;;;6.10;67.30;;;;;;4939527;29;20043;-85
2021/03/20 08:41:11;;;;;;;21.10;15.45;;;6.20;66.80;;;;;;4957255;29;20039;-80
2021/03/20 08:43:59;;;;;;;21.45;15.95;;;6.30;66.70;;;;;;4958263;29;20102;-79
2021/03/20 08:46:48;;;;;;;25.63;17.40;;;6.50;66.00;;;;;;4942358;29;20202;-78
2021/03/20 08:49:37;;;;;;;25.38;15.77;;;6.70;65.30;;;;;;4942464;29;20062;-79
2021/03/20 08:52:22;;;;;;;26.85;14.88;;;6.90;64.10;;;;;;4957608;29;20082;-79
2021/03/20 08:55:21;;;;;;;20.60;15.10;;;7.10;63.30;;;;;;4959096;29;20039;-79
2021/03/20 08:58:01;;;;;;;20.77;14.50;;;7.10;63.10;;;;;;4941496;29;20046;-78
2021/03/20 09:01:03;;;;;;;21.95;14.98;;;7.10;63.20;;;;;;4957395;29;20059;-78
2021/03/20 09:03:41;;;;;;;17.33;14.13;;;7.10;63.20;;;;;;4959797;29;20035;-80
2021/03/20 09:06:12;;;;;;;19.52;14.75;;;7.20;62.60;;;;;;4961124;29;20110;-78
2021/03/20 09:08:46;;;;;;;19.10;14.55;;;7.40;62.00;;;;;;4941739;29;20515;-79
2021/03/20 09:11:35;;;;;;;20.50;13.97;;;7.50;61.80;;;;;;4957466;29;20511;-81
2021/03/20 09:14:15;;;;;;;20.65;14.38;;;7.70;61.20;;;;;;4957697;29;20778;-80
2021/03/20 09:16:51;;;;;;;21.25;12.95;;;7.70;61.10;;;;;;4957421;29;20039;-87
2021/03/20 09:19:23;;;;;;;16.50;13.27;;;7.90;59.80;;;;;;4956827;29;20035;-81
2021/03/20 09:21:50;;;;;;;21.77;13.10;;;8.10;59.40;;;;;;4941779;29;20174;-85
2021/03/20 09:24:21;;;;;;;14.07;11.48;;;8.30;58.70;;;;;;4957130;29;20039;-83
2021/03/20 09:26:50;;;;;;;16.08;12.63;;;8.40;58.20;;;;;;4940490;29;20039;-84
2021/03/20 09:29:34;;;;;;;14.77;12.70;;;8.60;57.50;;;;;;4957158;29;20043;-86
2021/03/20 09:32:09;;;;;;;15.63;12.80;;;8.60;56.70;;;;;;4958592;29;20054;-84
2021/03/20 09:34:48;;;;;;;14.43;11.40;;;8.70;56.80;;;;;;4957576;29;20054;-86
2021/03/20 09:37:17;;;;;;;12.82;11.05;;;8.80;56.40;;;;;;4956658;29;20416;-86
2021/03/20 09:39:55;;;;;;;14.45;10.82;;;8.80;55.30;;;;;;4940335;29;20039;-85
2021/03/20 09:42:24;;;;;;;13.32;10.52;;;8.80;54.70;;;;;;4956756;29;20055;-86
2021/03/20 09:44:51;;;;;;;13.48;10.70;;;8.80;55.10;;;;;;4940739;29;20035;-86
2021/03/20 09:47:35;;;;;;;15.20;10.75;;;8.90;56.20;;;;;;4958067;29;20133;-86
2021/03/20 09:50:27;;;;;;;16.65;10.75;;;9.00;54.90;;;;;;4940875;29;20452;-86
2021/03/20 09:53:08;;;;;;;21.25;10.40;;;9.30;53.70;;;;;;4956815;29;20523;-86
2021/03/20 09:55:49;;;;;;;11.30;8.70;;;9.40;53.10;;;;;;4957475;29;20043;-86
2021/03/20 09:58:20;;;;;;;12.60;9.00;;;9.40;50.50;;;;;;4957815;29;20128;-86
2021/03/20 10:00:53;;;;;;;14.25;9.57;;;9.50;51.50;;;;;;4940429;29;20039;-86
2021/03/20 10:04:04;;;;;;;12.25;8.30;;;9.80;51.60;;;;;;4957995;29;20078;-86
2021/03/20 10:06:30;;;;;;;13.18;8.30;;;9.70;48.80;;;;;;4937788;29;20066;-86
2021/03/20 10:09:08;;;;;;;12.63;8.75;;;9.70;48.60;;;;;;4940200;29;20034;-86
2021/03/20 10:11:35;;;;;;;16.52;10.63;;;9.90;48.50;;;;;;4957592;29;20082;-86
2021/03/20 10:14:21;;;;;;;19.08;12.15;;;10.10;48.70;;;;;;4940147;29;20031;-86
2021/03/20 10:17:14;;;;;;;20.13;10.43;;;10.10;47.80;;;;;;4955649;29;20094;-85
2021/03/20 10:20:06;;;;;;;13.95;10.75;;;10.20;48.30;;;;;;4957249;29;20035;-86
2021/03/20 10:22:35;;;;;;;14.98;11.43;;;10.30;48.70;;;;;;4959017;29;20035;-86
2021/03/20 10:25:03;;;;;;;15.50;11.13;;;10.40;49.00;;;;;;4964935;29;20058;-85
2021/03/20 10:27:38;;;;;;;14.35;11.32;;;10.20;48.60;;;;;;4962706;29;20222;-85
2021/03/20 10:30:15;;;;;;;13.55;9.80;;;10.20;50.00;;;;;;4959711;29;20039;-85
2021/03/20 10:32:55;;;;;;;14.82;10.10;;;10.40;46.90;;;;;;4940319;29;20035;-85
2021/03/20 10:35:22;;;;;;;11.43;9.60;;;10.60;46.20;;;;;;4955713;29;20051;-85
2021/03/20 10:37:49;;;;;;;12.25;9.88;;;10.60;47.00;;;;;;4955853;29;20046;-85
2021/03/20 10:40:24;;;;;;;12.20;9.68;;;10.70;46.60;;;;;;4957302;29;20047;-85
2021/03/20 10:42:52;;;;;;;;;;;10.70;46.00;;;;;;4956371;29;20134;-85
2021/03/20 10:45:34;;;;;;;15.48;9.85;;;10.80;46.00;;;;;;4956822;29;19910;-85
2021/03/20 10:48:17;;;;;;;13.23;10.40;;;10.70;47.00;;;;;;4955008;29;20066;-85
2021/03/20 10:50:46;;;;;;;12.20;9.57;;;10.80;46.70;;;;;;4955526;29;20039;-85
2021/03/20 10:53:33;;;;;;;17.02;11.95;;;10.90;46.50;;;;;;4956545;29;20039;-85
2021/03/20 10:56:00;;;;;;;11.18;8.20;;;11.10;45.50;;;;;;4954812;29;20058;-85
2021/03/20 10:58:33;;;;;;;15.48;8.73;;;11.10;44.40;;;;;;4955374;29;20054;-84
2021/03/20 11:00:59;;;;;;;13.02;7.85;;;11.10;45.10;;;;;;4957333;28;20039;-85
2021/03/20 11:03:38;;;;;;;17.75;8.90;;;11.20;44.70;;;;;;4955314;29;20098;-86
2021/03/20 11:06:11;;;;;;;13.27;8.60;;;11.40;43.60;;;;;;4955058;29;20035;-82
2021/03/20 11:08:37;;;;;;;21.20;11.30;;;11.30;43.90;;;;;;4938728;29;20054;-85
2021/03/20 11:11:06;;;;;;;13.95;7.50;;;11.10;44.00;;;;;;4938695;29;20134;-84
2021/03/20 11:13:47;;;;;;;14.68;9.90;;;11.10;43.70;;;;;;4938665;29;20138;-88
2021/03/20 11:16:19;;;;;;;11.50;8.82;;;11.20;43.60;;;;;;4954486;29;20035;-84
2021/03/20 11:18:50;;;;;;;19.63;10.75;;;11.30;43.80;;;;;;4954751;29;20136;-83
2021/03/20 11:21:22;;;;;;;11.50;8.80;;;11.40;43.90;;;;;;4954545;29;20047;-82
2021/03/20 11:24:18;;;;;;;16.55;9.35;;;11.70;44.10;;;;;;4955049;29;20047;-84
2021/03/20 11:26:47;;;;;;;12.15;7.30;;;11.70;43.20;;;;;;4955989;29;20519;-83
2021/03/20 11:29:26;;;;;;;11.57;8.43;;;11.60;42.70;;;;;;4954490;29;20161;-84
2021/03/20 11:32:04;;;;;;;16.42;9.48;;;11.40;43.80;;;;;;4954531;29;20031;-83
2021/03/20 11:34:39;;;;;;;9.52;7.45;;;11.50;44.20;;;;;;4955737;29;20035;-87
2021/03/20 11:37:26;;;;;;;10.23;7.85;;;11.80;43.50;;;;;;4955271;29;20047;-86
2021/03/20 11:39:54;;;;;;;10.20;6.95;;;11.80;43.20;;;;;;4954595;29;20077;-87
2021/03/20 11:42:25;;;;;;;12.90;7.88;;;12.10;42.50;;;;;;4955465;29;20190;-85
2021/03/20 11:44:52;;;;;;;11.63;7.78;;;12.00;42.60;;;;;;4955499;29;20096;-86
2021/03/20 11:47:30;;;;;;;12.30;7.50;;;12.00;43.10;;;;;;4959764;29;20039;-85
2021/03/20 11:49:58;;;;;;;8.95;6.45;;;12.10;41.70;;;;;;4962082;29;20043;-87
2021/03/20 11:52:30;;;;;;;9.35;6.70;;;12.20;42.20;;;;;;4962380;29;20042;-84
2021/03/20 11:55:06;;;;;;;10.95;6.53;;;12.20;42.30;;;;;;4961542;29;20212;-85
2021/03/20 11:57:38;;;;;;;19.13;9.70;;;12.10;42.80;;;;;;4961250;29;20050;-84
2021/03/20 12:00:34;;;;;;;13.90;8.05;;;12.20;42.60;;;;;;4958787;29;20133;-84
2021/03/20 12:03:02;;;;;;;7.80;6.07;;;12.20;41.70;;;;;;4955930;29;20122;-85
2021/03/20 12:05:30;;;;;;;8.15;6.10;;;12.20;42.10;;;;;;4956052;29;20167;-86
2021/03/20 12:08:26;;;;;;;7.57;5.05;;;12.40;42.00;;;;;;4959597;29;20070;-83
2021/03/20 12:11:11;;;;;;;9.90;5.55;;;12.60;41.50;;;;;;4960815;29;20047;-84
2021/03/20 12:13:37;;;;;;;;;;;12.50;40.30;;;;;;4960859;28;20050;-84
2021/03/20 12:16:03;;;;;;;8.23;4.85;;;12.30;40.70;;;;;;4944892;29;19915;-84
2021/03/20 12:18:31;;;;;;;5.20;3.97;;;12.30;40.80;;;;;;4970224;28;20201;-85
2021/03/20 12:21:05;;;;;;;6.32;4.28;;;12.50;40.60;;;;;;4980953;28;20034;-83
2021/03/20 12:23:34;;;;;;;6.10;4.55;;;12.40;39.70;;;;;;4981843;28;20039;-85
2021/03/20 12:26:01;;;;;;;6.35;4.60;;;12.40;40.10;;;;;;4978111;29;20039;-84
2021/03/20 12:28:44;;;;;;;7.05;4.72;;;12.40;40.70;;;;;;4958031;29;20035;-82
2021/03/20 12:31:13;;;;;;;11.50;5.70;;;12.60;40.60;;;;;;4959918;29;20110;-82
2021/03/20 12:34:04;;;;;;;8.07;4.72;;;12.60;40.60;;;;;;4957525;29;20054;-84
2021/03/20 12:36:36;;;;;;;6.38;4.35;;;12.40;39.80;;;;;;4974364;29;20043;-84
2021/03/20 12:39:23;;;;;;;7.10;4.88;;;12.30;40.20;;;;;;4970532;29;20038;-82
2021/03/20 12:41:53;;;;;;;6.15;4.35;;;12.40;40.70;;;;;;4953534;29;20051;-85
2021/03/20 12:44:24;;;;;;;5.00;3.92;;;12.50;38.90;;;;;;4942647;29;20175;-85
2021/03/20 12:46:56;;;;;;;6.55;4.20;;;12.50;38.90;;;;;;4940240;29;20043;-82
2021/03/20 12:49:27;;;;;;;5.05;4.18;;;12.50;39.70;;;;;;4939176;29;20036;-84
2021/03/20 12:52:13;;;;;;;6.65;4.85;;;12.70;39.20;;;;;;4938386;29;20039;-83
2021/03/20 12:54:43;;;;;;;4.85;4.22;;;12.70;38.20;;;;;;4938387;29;20047;-83
2021/03/20 12:57:30;;;;;;;7.32;4.80;;;12.70;38.70;;;;;;4944837;29;20043;-83
2021/03/20 12:59:57;;;;;;;11.85;6.60;;;12.80;38.90;;;;;;4946128;29;20039;-82
2021/03/20 13:02:23;;;;;;;8.85;4.53;;;12.80;39.30;;;;;;4944042;29;20048;-83
2021/03/20 13:04:50;;;;;;;7.32;4.88;;;12.70;39.50;;;;;;4921943;29;20027;-84
2021/03/20 13:07:19;;;;;;;7.53;4.32;;;12.70;39.40;;;;;;4937845;29;20040;-83
2021/03/20 13:09:46;;;;;;;9.57;4.88;;;12.90;39.40;;;;;;4937626;29;20412;-84
2021/03/20 13:12:13;;;;;;;7.18;5.00;;;13.10;39.10;;;;;;4939188;29;20122;-83
2021/03/20 13:14:40;;;;;;;8.30;5.47;;;13.30;39.20;;;;;;4938310;29;20039;-84
2021/03/20 13:17:07;;;;;;;8.13;4.55;;;13.30;39.00;;;;;;4938196;29;20090;-84
2021/03/20 13:19:33;;;;;;;6.43;5.15;;;13.20;39.30;;;;;;4939647;29;20035;-84
2021/03/20 13:22:00;;;;;;;6.93;4.82;;;13.20;39.70;;;;;;4937702;29;20130;-84
2021/03/20 13:24:26;;;;;;;7.30;5.05;;;13.30;40.20;;;;;;4938488;29;20043;-80
2021/03/20 13:26:52;;;;;;;8.05;4.95;;;13.20;40.10;;;;;;4939238;29;20051;-83
2021/03/20 13:29:18;;;;;;;7.68;4.93;;;13.20;40.10;;;;;;4937634;29;20102;-80